Montego — 9HLX8 — position and weather

sailwx.info

Track history (hours):
 
Tides and Currents Weather Stations Pressure Air Temp Water Temp Dewpoint Dewpoint Depression Visibility Wind Speed Wind Dir Waves Ship Positions

Montego

Last reported at 2017-Nov-19 08:22 UTC. Time now 2017-Nov-19 08:42 UTC.
Position N 51°20' E 004°18'.

Length 246 m; draft 15 m.

Type: Ship (hazmat cat A). MMSI: 249549000.

Date/timePositionNaut miles runAvg speedWind from/ knotsBaromVisibWave heightAir tempDewpointWater temp
2017-Nov-19 08:22N 51°20' E 004°18'0 0.0
2017-Nov-19 07:55N 51°20' E 004°18'0 0.0
2017-Nov-19 07:25N 51°20' E 004°18'0 0.0
2017-Nov-19 06:36N 51°20' E 004°18'0 0.0
2017-Nov-19 06:31N 51°20' E 004°18'0 0.1
2017-Nov-19 06:01N 51°20' E 004°18'1 1.0
2017-Nov-19 05:31N 51°21' E 004°17'0 0.0
2017-Nov-19 05:01N 51°21' E 004°17'0 0.0
2017-Nov-19 04:31N 51°21' E 004°17'0 0.0
2017-Nov-19 04:01N 51°21' E 004°17'0 0.6
2017-Nov-19 03:30N 51°21' E 004°17'2 3.2
2017-Nov-19 03:00N 51°21' E 004°14'3 6.4
2017-Nov-19 02:30N 51°24' E 004°11'510.1
2017-Nov-19 02:00N 51°23' E 004°03'4 8.4
2017-Nov-19 01:31N 51°25' E 003°58'713.4
2017-Nov-19 01:00N 51°21' E 003°50'612.5
2017-Nov-19 00:31N 51°25' E 003°43'510.1
2017-Nov-19 00:00N 51°25' E 003°35'510.5
2017-Nov-18 23:30N 51°25' E 003°26'611.2
2017-Nov-18 23:00N 51°24' E 003°17'510.3
2017-Nov-18 22:30N 51°24' E 003°09'510.3
2017-Nov-18 22:00N 51°25' E 003°01'5 9.9
2017-Nov-18 21:30N 51°25' E 002°53'5 9.7
2017-Nov-18 21:00N 51°24' E 002°45'4 6.9
2017-Nov-18 20:26N 51°24' E 002°39'2 4.5
2017-Nov-18 19:57N 51°24' E 002°36'0 0.1
2017-Nov-18 17:08N 51°24' E 002°36'0 0.4
2017-Nov-18 16:53N 51°24' E 002°36'0 0.3
2017-Nov-18 16:29N 51°25' E 002°36'0 0.1
2017-Nov-18 15:59N 51°25' E 002°36'0 0.0
2017-Nov-18 15:29N 51°25' E 002°36'0 0.0
2017-Nov-18 14:56N 51°25' E 002°36'0 0.0
2017-Nov-18 14:29N 51°25' E 002°36'0 0.0
2017-Nov-18 13:56N 51°25' E 002°36'0 0.0
2017-Nov-18 13:29N 51°25' E 002°36'0 0.0
2017-Nov-18 12:59N 51°25' E 002°36'0 0.1
2017-Nov-18 12:29N 51°25' E 002°36'1 1.1
2017-Nov-18 11:50N 51°24' E 002°36'2 5.5
2017-Nov-18 11:28N 51°23' E 002°33'5 9.1
2017-Nov-18 10:53N 51°21' E 002°25'410.0
2017-Nov-18 10:28N 51°19' E 002°19'4 9.6
2017-Nov-18 10:01N 51°19' E 002°12'5 9.5
2017-Nov-18 09:30N 51°20' E 002°04'611.3
2017-Nov-18 09:00N 51°24' E 001°58'612.6
2017-Nov-18 08:30N 51°30' E 002°03'713.6
2017-Nov-18 08:00N 51°35' E 002°10'713.5
2017-Nov-18 07:29N 51°40' E 002°17'46110.9
2017-Nov-16 13:13N 57°50' E 010°14'311.9
2017-Nov-16 12:56N 57°50' E 010°21'613.7
2017-Nov-16 12:30N 57°50' E 010°32'713.3
2017-Nov-16 12:01N 57°50' E 010°44'714.0
2017-Nov-16 11:31N 57°44' E 010°53'612.1
2017-Nov-16 11:00N 57°40' E 011°01'612.1
2017-Nov-16 10:30N 57°36' E 011°10'712.3
2017-Nov-16 09:58N 57°32' E 011°19'612.2
2017-Nov-16 09:30N 57°28' E 011°26'612.4
2017-Nov-16 09:00N 57°22' E 011°30'712.5
2017-Nov-16 08:29N 57°16' E 011°34'612.3
2017-Nov-16 08:00N 57°10' E 011°38'812.2
2017-Nov-16 07:19N 57°02' E 011°42'712.4
2017-Nov-16 06:46N 56°56' E 011°47'412.3
2017-Nov-16 06:28N 56°52' E 011°49'811.7
2017-Nov-16 05:49N 56°45' E 011°52'412.4
2017-Nov-16 05:30N 56°41' E 011°49'712.3
2017-Nov-16 04:57N 56°35' E 011°43'6711.6
2017-Nov-15 23:08N 55°35' E 010°49'512.0
2017-Nov-15 22:44N 55°30' E 010°53'1111.5
2017-Nov-15 21:46N 55°21' E 011°02'311.5
2017-Nov-15 21:30N 55°18' E 011°03'611.1
2017-Nov-15 20:57N 55°12' E 011°05'511.4
2017-Nov-15 20:30N 55°08' E 010°59'611.8
2017-Nov-15 20:00N 55°02' E 010°60'611.3
2017-Nov-15 19:30N 54°57' E 010°55'611.8
2017-Nov-15 19:00N 54°52' E 010°50'612.1
2017-Nov-15 18:30N 54°46' E 010°48'611.1
2017-Nov-15 18:00N 54°40' E 010°48'611.7
2017-Nov-15 17:30N 54°37' E 010°57'611.4
2017-Nov-15 17:00N 54°36' E 011°06'611.5
2017-Nov-15 16:30N 54°34' E 011°16'611.6
2017-Nov-15 16:00N 54°32' E 011°25'611.6
2017-Nov-15 15:31N 54°30' E 011°34'611.8
2017-Nov-15 15:00N 54°27' E 011°43'611.7
2017-Nov-15 14:30N 54°27' E 011°53'611.7
2017-Nov-15 14:01N 54°27' E 012°03'6 8.1
2017-Nov-15 13:18N 54°29' E 012°12'3 9.5
2017-Nov-15 13:00N 54°32' E 012°14'5 9.3
2017-Nov-15 12:30N 54°36' E 012°17'5 9.3
2017-Nov-15 12:00N 54°39' E 012°23'5 9.4
2017-Nov-15 11:30N 54°41' E 012°30'5611.4
2017-Nov-15 06:36N 55°03' E 013°60'111.8
2017-Nov-15 06:30N 55°03' E 014°01'712.0
2017-Nov-15 05:53N 55°08' E 014°12'411.7
2017-Nov-15 05:30N 55°09' E 014°19'611.8
2017-Nov-15 05:01N 55°12' E 014°29'612.3
2017-Nov-15 04:31N 55°16' E 014°37'612.1
2017-Nov-15 04:00N 55°20' E 014°45'4 8.4
2017-Nov-15 03:30N 55°19' E 014°52'510.1
2017-Nov-15 03:01N 55°21' E 015°00'611.7
2017-Nov-15 02:31N 55°23' E 015°09'612.1
2017-Nov-15 01:59N 55°26' E 015°20'612.4
2017-Nov-15 01:29N 55°29' E 015°29'612.4
2017-Nov-15 01:00N 55°31' E 015°39'612.1
2017-Nov-15 00:30N 55°34' E 015°49'712.1
2017-Nov-14 23:57N 55°36' E 015°60'512.0
2017-Nov-14 23:30N 55°38' E 016°08'611.9
2017-Nov-14 23:01N 55°41' E 016°18'611.7
2017-Nov-14 22:30N 55°43' E 016°28'47710.7
2017-Nov-13 01:57N 60°20' E 028°42'0 0.0
2017-Nov-13 01:24N 60°20' E 028°42'0 0.0
2017-Nov-13 01:00N 60°20' E 028°42'0 0.0
2017-Nov-13 00:30N 60°20' E 028°42'0 0.0
2017-Nov-13 00:00N 60°20' E 028°42'0 0.0
2017-Nov-12 23:30N 60°20' E 028°42'0 0.0
2017-Nov-12 23:00N 60°20' E 028°42'0 0.0
2017-Nov-12 22:30N 60°20' E 028°42'0 0.0
2017-Nov-12 22:00N 60°20' E 028°42'0 0.0
2017-Nov-12 21:30N 60°20' E 028°42'0 0.0
2017-Nov-12 20:58N 60°20' E 028°42'0 0.0
2017-Nov-12 20:27N 60°20' E 028°42'0 0.0
2017-Nov-12 19:57N 60°20' E 028°42'0 0.0
2017-Nov-12 19:30N 60°20' E 028°42'0 0.0
2017-Nov-12 18:55N 60°20' E 028°42'0 0.0
2017-Nov-12 18:30N 60°20' E 028°42'0 0.0
2017-Nov-12 17:54N 60°20' E 028°42'0 0.0
2017-Nov-12 17:30N 60°20' E 028°42'0 0.0
2017-Nov-12 17:00N 60°20' E 028°42'0 0.0
2017-Nov-12 16:27N 60°20' E 028°42'0 0.0
2017-Nov-12 16:00N 60°20' E 028°42'0 0.0
2017-Nov-12 15:30N 60°20' E 028°42'0 0.0
2017-Nov-12 15:00N 60°20' E 028°42'0 0.0
2017-Nov-12 14:27N 60°20' E 028°42'0 0.0
2017-Nov-12 14:00N 60°20' E 028°42'0 0.0
2017-Nov-12 13:30N 60°20' E 028°42'0 0.0
2017-Nov-12 13:00N 60°20' E 028°42'0 0.0
2017-Nov-12 12:30N 60°20' E 028°42'0 0.0
2017-Nov-12 12:00N 60°20' E 028°42'0 0.0
2017-Nov-12 11:30N 60°20' E 028°42'0 0.0
2017-Nov-12 11:00N 60°20' E 028°42'0 0.0
2017-Nov-12 10:30N 60°20' E 028°42'0 0.0
2017-Nov-12 10:00N 60°20' E 028°42'0 0.0
2017-Nov-12 09:27N 60°20' E 028°42'0 0.0
2017-Nov-12 09:00N 60°20' E 028°42'0 0.0
2017-Nov-12 08:24N 60°20' E 028°42'0 0.0
2017-Nov-12 08:00N 60°20' E 028°42'0 0.0
2017-Nov-12 07:30N 60°20' E 028°42'0 0.0
2017-Nov-12 07:00N 60°20' E 028°42'0 0.0
2017-Nov-12 06:30N 60°20' E 028°42'0 0.0
2017-Nov-12 06:00N 60°20' E 028°42'0 0.0
2017-Nov-12 05:30N 60°20' E 028°42'0 0.0
2017-Nov-12 05:00N 60°20' E 028°42'0 0.0
2017-Nov-12 04:29N 60°20' E 028°42'0 0.0
2017-Nov-12 04:00N 60°20' E 028°42'0 0.0
2017-Nov-12 03:26N 60°20' E 028°42'0 0.0
2017-Nov-12 02:59N 60°20' E 028°42'0 0.0
2017-Nov-12 02:29N 60°20' E 028°42'0 0.0
2017-Nov-12 01:59N 60°20' E 028°42'0 0.0
2017-Nov-12 01:29N 60°20' E 028°42'0 0.0
2017-Nov-12 00:59N 60°20' E 028°42'0 0.0
2017-Nov-12 00:29N 60°20' E 028°42'0 0.0
2017-Nov-11 23:59N 60°20' E 028°42'0 0.0
2017-Nov-11 23:29N 60°20' E 028°42'0 0.0
2017-Nov-11 22:59N 60°20' E 028°42'0 0.0
2017-Nov-11 22:29N 60°20' E 028°42'0 0.0
2017-Nov-11 22:00N 60°20' E 028°42'0 1.0
2017-Nov-11 21:30N 60°20' E 028°42'3 5.3
2017-Nov-11 21:00N 60°18' E 028°45'5 9.2
2017-Nov-11 20:30N 60°13' E 028°46'3 5.9
2017-Nov-11 20:00N 60°11' E 028°43'3 6.7
2017-Nov-11 19:30N 60°09' E 028°37'510.8
2017-Nov-11 19:00N 60°06' E 028°27'4 8.8
2017-Nov-11 18:30N 60°06' E 028°18'510.5
2017-Nov-11 18:00N 60°08' E 028°09'510.8
2017-Nov-11 17:30N 60°10' E 027°58'510.9
2017-Nov-11 17:00N 60°11' E 027°47'611.3
2017-Nov-11 16:30N 60°08' E 027°37'611.6
2017-Nov-11 16:00N 60°05' E 027°28'611.6
2017-Nov-11 15:30N 60°02' E 027°18'611.5
2017-Nov-11 15:00N 59°59' E 027°08'611.3
2017-Nov-11 14:30N 59°58' E 026°57'612.0
2017-Nov-11 14:00N 59°60' E 026°45'611.8
2017-Nov-11 13:30N 59°59' E 026°33'612.0
2017-Nov-11 13:00N 59°57' E 026°22'2211.8
2017-Nov-11 11:07N 59°51' E 025°39'211.5
2017-Nov-11 10:57N 59°51' E 025°35'611.4
2017-Nov-11 10:25N 59°50' E 025°23'511.4
2017-Nov-11 10:00N 59°49' E 025°14'611.3
2017-Nov-11 09:30N 59°48' E 025°03'611.3
2017-Nov-11 09:00N 59°47' E 024°52'611.3
2017-Nov-11 08:30N 59°45' E 024°41'611.7
2017-Nov-11 08:00N 59°44' E 024°30'611.5
2017-Nov-11 07:30N 59°43' E 024°19'611.5
2017-Nov-11 07:00N 59°40' E 024°08'611.4
2017-Nov-11 06:30N 59°39' E 023°58'510.7
2017-Nov-11 06:00N 59°37' E 023°48'510.7
2017-Nov-11 05:30N 59°35' E 023°38'510.8
2017-Nov-11 05:00N 59°33' E 023°28'510.8
2017-Nov-11 04:30N 59°31' E 023°17'610.7
2017-Nov-11 03:59N 59°30' E 023°07'29911.4
2017-Nov-10 01:50N 55°48' E 016°50'412.4
2017-Nov-10 01:30N 55°48' E 016°43'612.5
2017-Nov-10 01:00N 55°46' E 016°32'612.6
2017-Nov-10 00:30N 55°45' E 016°21'612.6
2017-Nov-10 00:00N 55°43' E 016°11'612.4
2017-Nov-09 23:30N 55°41' E 016°00'612.4
2017-Nov-09 23:00N 55°40' E 015°50'612.6
2017-Nov-09 22:30N 55°38' E 015°39'612.6
2017-Nov-09 22:00N 55°37' E 015°28'612.5
2017-Nov-09 21:30N 55°34' E 015°18'712.7
2017-Nov-09 20:59N 55°31' E 015°07'612.6
2017-Nov-09 20:30N 55°29' E 014°57'612.7
2017-Nov-09 20:00N 55°26' E 014°47'612.8
2017-Nov-09 19:30N 55°23' E 014°38'612.8
2017-Nov-09 19:00N 55°18' E 014°31'712.7
2017-Nov-09 18:29N 55°13' E 014°23'612.1
2017-Nov-09 18:00N 55°10' E 014°14'712.7
2017-Nov-09 17:29N 55°10' E 014°03'1812.9
2017-Nov-09 16:05N 55°11' E 013°31'213.3
2017-Nov-09 15:58N 55°11' E 013°28'613.0
2017-Nov-09 15:30N 55°11' E 013°18'713.4
2017-Nov-09 15:00N 55°12' E 013°06'714.8
2017-Nov-09 14:30N 55°14' E 012°54'815.1
2017-Nov-09 14:00N 55°17' E 012°42'510.8
2017-Nov-09 13:30N 55°22' E 012°38'511.0
2017-Nov-09 13:00N 55°27' E 012°40'5 9.7
2017-Nov-09 12:30N 55°32' E 012°42'4 8.2
2017-Nov-09 12:00N 55°36' E 012°42'5 9.8
2017-Nov-09 11:30N 55°41' E 012°41'715.0
2017-Nov-09 11:01N 55°48' E 012°42'815.6
2017-Nov-09 10:30N 55°56' E 012°38'714.5
2017-Nov-09 10:00N 56°03' E 012°38'612.7
2017-Nov-09 09:30N 56°07' E 012°30'510.2
2017-Nov-09 09:00N 56°10' E 012°23'611.7
2017-Nov-09 08:30N 56°14' E 012°14'  
Track history (hours):
 
Tides and Currents Weather Stations Pressure Air Temp Water Temp Dewpoint Dewpoint Depression Visibility Wind Speed Wind Dir Waves Ship Positions

Montego

Last reported at 2017-Nov-19 08:22 UTC. Time now 2017-Nov-19 08:42 UTC.
Position N 51°20' E 004°18'.

Length 246 m; draft 15 m.

Type: Ship (hazmat cat A). MMSI: 249549000.

Date/timePositionNaut miles runAvg speedWind from/ knotsBaromVisibWave heightAir tempDewpointWater temp
2017-Nov-19 08:22N 51°20' E 004°18'0 0.0
2017-Nov-19 07:55N 51°20' E 004°18'0 0.0
2017-Nov-19 07:25N 51°20' E 004°18'0 0.0
2017-Nov-19 06:36N 51°20' E 004°18'0 0.0
2017-Nov-19 06:31N 51°20' E 004°18'0 0.1
2017-Nov-19 06:01N 51°20' E 004°18'1 1.0
2017-Nov-19 05:31N 51°21' E 004°17'0 0.0
2017-Nov-19 05:01N 51°21' E 004°17'0 0.0
2017-Nov-19 04:31N 51°21' E 004°17'0 0.0
2017-Nov-19 04:01N 51°21' E 004°17'0 0.6
2017-Nov-19 03:30N 51°21' E 004°17'2 3.2
2017-Nov-19 03:00N 51°21' E 004°14'3 6.4
2017-Nov-19 02:30N 51°24' E 004°11'510.1
2017-Nov-19 02:00N 51°23' E 004°03'4 8.4
2017-Nov-19 01:31N 51°25' E 003°58'713.4
2017-Nov-19 01:00N 51°21' E 003°50'612.5
2017-Nov-19 00:31N 51°25' E 003°43'510.1
2017-Nov-19 00:00N 51°25' E 003°35'510.5
2017-Nov-18 23:30N 51°25' E 003°26'611.2
2017-Nov-18 23:00N 51°24' E 003°17'510.3
2017-Nov-18 22:30N 51°24' E 003°09'510.3
2017-Nov-18 22:00N 51°25' E 003°01'5 9.9
2017-Nov-18 21:30N 51°25' E 002°53'5 9.7
2017-Nov-18 21:00N 51°24' E 002°45'4 6.9
2017-Nov-18 20:26N 51°24' E 002°39'2 4.5
2017-Nov-18 19:57N 51°24' E 002°36'0 0.1
2017-Nov-18 17:08N 51°24' E 002°36'0 0.4
2017-Nov-18 16:53N 51°24' E 002°36'0 0.3
2017-Nov-18 16:29N 51°25' E 002°36'0 0.1
2017-Nov-18 15:59N 51°25' E 002°36'0 0.0
2017-Nov-18 15:29N 51°25' E 002°36'0 0.0
2017-Nov-18 14:56N 51°25' E 002°36'0 0.0
2017-Nov-18 14:29N 51°25' E 002°36'0 0.0
2017-Nov-18 13:56N 51°25' E 002°36'0 0.0
2017-Nov-18 13:29N 51°25' E 002°36'0 0.0
2017-Nov-18 12:59N 51°25' E 002°36'0 0.1
2017-Nov-18 12:29N 51°25' E 002°36'1 1.1
2017-Nov-18 11:50N 51°24' E 002°36'2 5.5
2017-Nov-18 11:28N 51°23' E 002°33'5 9.1
2017-Nov-18 10:53N 51°21' E 002°25'410.0
2017-Nov-18 10:28N 51°19' E 002°19'4 9.6
2017-Nov-18 10:01N 51°19' E 002°12'5 9.5
2017-Nov-18 09:30N 51°20' E 002°04'611.3
2017-Nov-18 09:00N 51°24' E 001°58'612.6
2017-Nov-18 08:30N 51°30' E 002°03'713.6
2017-Nov-18 08:00N 51°35' E 002°10'713.5
2017-Nov-18 07:29N 51°40' E 002°17'46110.9
2017-Nov-16 13:13N 57°50' E 010°14'311.9
2017-Nov-16 12:56N 57°50' E 010°21'613.7
2017-Nov-16 12:30N 57°50' E 010°32'713.3
2017-Nov-16 12:01N 57°50' E 010°44'714.0
2017-Nov-16 11:31N 57°44' E 010°53'612.1
2017-Nov-16 11:00N 57°40' E 011°01'612.1
2017-Nov-16 10:30N 57°36' E 011°10'712.3
2017-Nov-16 09:58N 57°32' E 011°19'612.2
2017-Nov-16 09:30N 57°28' E 011°26'612.4
2017-Nov-16 09:00N 57°22' E 011°30'712.5
2017-Nov-16 08:29N 57°16' E 011°34'612.3
2017-Nov-16 08:00N 57°10' E 011°38'812.2
2017-Nov-16 07:19N 57°02' E 011°42'712.4
2017-Nov-16 06:46N 56°56' E 011°47'412.3
2017-Nov-16 06:28N 56°52' E 011°49'811.7
2017-Nov-16 05:49N 56°45' E 011°52'412.4
2017-Nov-16 05:30N 56°41' E 011°49'712.3
2017-Nov-16 04:57N 56°35' E 011°43'6711.6
2017-Nov-15 23:08N 55°35' E 010°49'512.0
2017-Nov-15 22:44N 55°30' E 010°53'1111.5
2017-Nov-15 21:46N 55°21' E 011°02'311.5
2017-Nov-15 21:30N 55°18' E 011°03'611.1
2017-Nov-15 20:57N 55°12' E 011°05'511.4
2017-Nov-15 20:30N 55°08' E 010°59'611.8
2017-Nov-15 20:00N 55°02' E 010°60'611.3
2017-Nov-15 19:30N 54°57' E 010°55'611.8
2017-Nov-15 19:00N 54°52' E 010°50'612.1
2017-Nov-15 18:30N 54°46' E 010°48'611.1
2017-Nov-15 18:00N 54°40' E 010°48'611.7
2017-Nov-15 17:30N 54°37' E 010°57'611.4
2017-Nov-15 17:00N 54°36' E 011°06'611.5
2017-Nov-15 16:30N 54°34' E 011°16'611.6
2017-Nov-15 16:00N 54°32' E 011°25'611.6
2017-Nov-15 15:31N 54°30' E 011°34'611.8
2017-Nov-15 15:00N 54°27' E 011°43'611.7
2017-Nov-15 14:30N 54°27' E 011°53'611.7
2017-Nov-15 14:01N 54°27' E 012°03'6 8.1
2017-Nov-15 13:18N 54°29' E 012°12'3 9.5
2017-Nov-15 13:00N 54°32' E 012°14'5 9.3
2017-Nov-15 12:30N 54°36' E 012°17'5 9.3
2017-Nov-15 12:00N 54°39' E 012°23'5 9.4
2017-Nov-15 11:30N 54°41' E 012°30'5611.4
2017-Nov-15 06:36N 55°03' E 013°60'111.8
2017-Nov-15 06:30N 55°03' E 014°01'712.0
2017-Nov-15 05:53N 55°08' E 014°12'411.7
2017-Nov-15 05:30N 55°09' E 014°19'611.8
2017-Nov-15 05:01N 55°12' E 014°29'612.3
2017-Nov-15 04:31N 55°16' E 014°37'612.1
2017-Nov-15 04:00N 55°20' E 014°45'4 8.4
2017-Nov-15 03:30N 55°19' E 014°52'510.1
2017-Nov-15 03:01N 55°21' E 015°00'611.7
2017-Nov-15 02:31N 55°23' E 015°09'612.1
2017-Nov-15 01:59N 55°26' E 015°20'612.4
2017-Nov-15 01:29N 55°29' E 015°29'612.4
2017-Nov-15 01:00N 55°31' E 015°39'612.1
2017-Nov-15 00:30N 55°34' E 015°49'712.1
2017-Nov-14 23:57N 55°36' E 015°60'512.0
2017-Nov-14 23:30N 55°38' E 016°08'611.9
2017-Nov-14 23:01N 55°41' E 016°18'611.7
2017-Nov-14 22:30N 55°43' E 016°28'47710.7
2017-Nov-13 01:57N 60°20' E 028°42'0 0.0
2017-Nov-13 01:24N 60°20' E 028°42'0 0.0
2017-Nov-13 01:00N 60°20' E 028°42'0 0.0
2017-Nov-13 00:30N 60°20' E 028°42'0 0.0
2017-Nov-13 00:00N 60°20' E 028°42'0 0.0
2017-Nov-12 23:30N 60°20' E 028°42'0 0.0
2017-Nov-12 23:00N 60°20' E 028°42'0 0.0
2017-Nov-12 22:30N 60°20' E 028°42'0 0.0
2017-Nov-12 22:00N 60°20' E 028°42'0 0.0
2017-Nov-12 21:30N 60°20' E 028°42'0 0.0
2017-Nov-12 20:58N 60°20' E 028°42'0 0.0
2017-Nov-12 20:27N 60°20' E 028°42'0 0.0
2017-Nov-12 19:57N 60°20' E 028°42'0 0.0
2017-Nov-12 19:30N 60°20' E 028°42'0 0.0
2017-Nov-12 18:55N 60°20' E 028°42'0 0.0
2017-Nov-12 18:30N 60°20' E 028°42'0 0.0
2017-Nov-12 17:54N 60°20' E 028°42'0 0.0
2017-Nov-12 17:30N 60°20' E 028°42'0 0.0
2017-Nov-12 17:00N 60°20' E 028°42'0 0.0
2017-Nov-12 16:27N 60°20' E 028°42'0 0.0
2017-Nov-12 16:00N 60°20' E 028°42'0 0.0
2017-Nov-12 15:30N 60°20' E 028°42'0 0.0
2017-Nov-12 15:00N 60°20' E 028°42'0 0.0
2017-Nov-12 14:27N 60°20' E 028°42'0 0.0
2017-Nov-12 14:00N 60°20' E 028°42'0 0.0
2017-Nov-12 13:30N 60°20' E 028°42'0 0.0
2017-Nov-12 13:00N 60°20' E 028°42'0 0.0
2017-Nov-12 12:30N 60°20' E 028°42'0 0.0
2017-Nov-12 12:00N 60°20' E 028°42'0 0.0
2017-Nov-12 11:30N 60°20' E 028°42'0 0.0
2017-Nov-12 11:00N 60°20' E 028°42'0 0.0
2017-Nov-12 10:30N 60°20' E 028°42'0 0.0
2017-Nov-12 10:00N 60°20' E 028°42'0 0.0
2017-Nov-12 09:27N 60°20' E 028°42'0 0.0
2017-Nov-12 09:00N 60°20' E 028°42'0 0.0
2017-Nov-12 08:24N 60°20' E 028°42'0 0.0
2017-Nov-12 08:00N 60°20' E 028°42'0 0.0
2017-Nov-12 07:30N 60°20' E 028°42'0 0.0
2017-Nov-12 07:00N 60°20' E 028°42'0 0.0
2017-Nov-12 06:30N 60°20' E 028°42'0 0.0
2017-Nov-12 06:00N 60°20' E 028°42'0 0.0
2017-Nov-12 05:30N 60°20' E 028°42'0 0.0
2017-Nov-12 05:00N 60°20' E 028°42'0 0.0
2017-Nov-12 04:29N 60°20' E 028°42'0 0.0
2017-Nov-12 04:00N 60°20' E 028°42'0 0.0
2017-Nov-12 03:26N 60°20' E 028°42'0 0.0
2017-Nov-12 02:59N 60°20' E 028°42'0 0.0
2017-Nov-12 02:29N 60°20' E 028°42'0 0.0
2017-Nov-12 01:59N 60°20' E 028°42'0 0.0
2017-Nov-12 01:29N 60°20' E 028°42'0 0.0
2017-Nov-12 00:59N 60°20' E 028°42'0 0.0
2017-Nov-12 00:29N 60°20' E 028°42'0 0.0
2017-Nov-11 23:59N 60°20' E 028°42'0 0.0
2017-Nov-11 23:29N 60°20' E 028°42'0 0.0
2017-Nov-11 22:59N 60°20' E 028°42'0 0.0
2017-Nov-11 22:29N 60°20' E 028°42'0 0.0
2017-Nov-11 22:00N 60°20' E 028°42'0 1.0
2017-Nov-11 21:30N 60°20' E 028°42'3 5.3
2017-Nov-11 21:00N 60°18' E 028°45'5 9.2
2017-Nov-11 20:30N 60°13' E 028°46'3 5.9
2017-Nov-11 20:00N 60°11' E 028°43'3 6.7
2017-Nov-11 19:30N 60°09' E 028°37'510.8
2017-Nov-11 19:00N 60°06' E 028°27'4 8.8
2017-Nov-11 18:30N 60°06' E 028°18'510.5
2017-Nov-11 18:00N 60°08' E 028°09'510.8
2017-Nov-11 17:30N 60°10' E 027°58'510.9
2017-Nov-11 17:00N 60°11' E 027°47'611.3
2017-Nov-11 16:30N 60°08' E 027°37'611.6
2017-Nov-11 16:00N 60°05' E 027°28'611.6
2017-Nov-11 15:30N 60°02' E 027°18'611.5
2017-Nov-11 15:00N 59°59' E 027°08'611.3
2017-Nov-11 14:30N 59°58' E 026°57'612.0
2017-Nov-11 14:00N 59°60' E 026°45'611.8
2017-Nov-11 13:30N 59°59' E 026°33'612.0
2017-Nov-11 13:00N 59°57' E 026°22'2211.8
2017-Nov-11 11:07N 59°51' E 025°39'211.5
2017-Nov-11 10:57N 59°51' E 025°35'611.4
2017-Nov-11 10:25N 59°50' E 025°23'511.4
2017-Nov-11 10:00N 59°49' E 025°14'611.3
2017-Nov-11 09:30N 59°48' E 025°03'611.3
2017-Nov-11 09:00N 59°47' E 024°52'611.3
2017-Nov-11 08:30N 59°45' E 024°41'611.7
2017-Nov-11 08:00N 59°44' E 024°30'611.5
2017-Nov-11 07:30N 59°43' E 024°19'611.5
2017-Nov-11 07:00N 59°40' E 024°08'611.4
2017-Nov-11 06:30N 59°39' E 023°58'510.7
2017-Nov-11 06:00N 59°37' E 023°48'510.7
2017-Nov-11 05:30N 59°35' E 023°38'510.8
2017-Nov-11 05:00N 59°33' E 023°28'510.8
2017-Nov-11 04:30N 59°31' E 023°17'610.7
2017-Nov-11 03:59N 59°30' E 023°07'29911.4
2017-Nov-10 01:50N 55°48' E 016°50'412.4
2017-Nov-10 01:30N 55°48' E 016°43'612.5
2017-Nov-10 01:00N 55°46' E 016°32'612.6
2017-Nov-10 00:30N 55°45' E 016°21'612.6
2017-Nov-10 00:00N 55°43' E 016°11'612.4
2017-Nov-09 23:30N 55°41' E 016°00'612.4
2017-Nov-09 23:00N 55°40' E 015°50'612.6
2017-Nov-09 22:30N 55°38' E 015°39'612.6
2017-Nov-09 22:00N 55°37' E 015°28'612.5
2017-Nov-09 21:30N 55°34' E 015°18'712.7
2017-Nov-09 20:59N 55°31' E 015°07'612.6
2017-Nov-09 20:30N 55°29' E 014°57'612.7
2017-Nov-09 20:00N 55°26' E 014°47'612.8
2017-Nov-09 19:30N 55°23' E 014°38'612.8
2017-Nov-09 19:00N 55°18' E 014°31'712.7
2017-Nov-09 18:29N 55°13' E 014°23'612.1
2017-Nov-09 18:00N 55°10' E 014°14'712.7
2017-Nov-09 17:29N 55°10' E 014°03'1812.9
2017-Nov-09 16:05N 55°11' E 013°31'213.3
2017-Nov-09 15:58N 55°11' E 013°28'613.0
2017-Nov-09 15:30N 55°11' E 013°18'713.4
2017-Nov-09 15:00N 55°12' E 013°06'714.8
2017-Nov-09 14:30N 55°14' E 012°54'815.1
2017-Nov-09 14:00N 55°17' E 012°42'510.8
2017-Nov-09 13:30N 55°22' E 012°38'511.0
2017-Nov-09 13:00N 55°27' E 012°40'5 9.7
2017-Nov-09 12:30N 55°32' E 012°42'4 8.2
2017-Nov-09 12:00N 55°36' E 012°42'5 9.8
2017-Nov-09 11:30N 55°41' E 012°41'715.0
2017-Nov-09 11:01N 55°48' E 012°42'815.6
2017-Nov-09 10:30N 55°56' E 012°38'714.5
2017-Nov-09 10:00N 56°03' E 012°38'612.7
2017-Nov-09 09:30N 56°07' E 012°30'510.2
2017-Nov-09 09:00N 56°10' E 012°23'611.7
2017-Nov-09 08:30N 56°14' E 012°14'  

Dump ship's entire track history